Impacts TAF Board
For situational awareness. Not to be used for flight planning purposes.
IDs:

KCHS - Charleston Intl, SC, US

Issued at 2006 UTC 21 May 2022
Updated at 2124 UTC 21 May 2022
Potential Impact None Slight Moderate High
Time2056Z 21/22Z 21/23Z 22/00Z 22/01Z 22/02Z 22/03Z 22/04Z 22/05Z 22/06Z 22/07Z 22/08Z 22/09Z 22/10Z>>
Type OBS PRVL PRVL PRVL PRVL PRVL PRVL PRVL PRVL PRVL PRVL PRVL PRVL PRVL
VIS 10 >6 >6 >6 >6 >6 >6 >6 >6 >6 >6 >6 >6 >6
CIG 250 -- 100 100 100 100 200 200 200 200 200 200 200 200
Cover BKN SCT BKN BKN BKN BKN BKN BKN BKN BKN BKN BKN BKN BKN
FltCat VFR VFR VFR VFR VFR VFR VFR VFR VFR VFR VFR VFR VFR VFR
WX -- -- -- VCSH VCSH VCSH -- -- -- -- -- -- -- --
WDir 200 170 180 190 190 190 200 200 200 200 200 200 200 200
WSpd 15 12 10 10 10 10 4 4 4 4 4 4 4 4
WGst -- 18 -- -- -- -- -- -- -- -- -- -- -- --
WSHgt -- -- -- -- -- -- -- -- -- -- -- -- -- --
WSDir -- -- -- -- -- -- -- -- -- -- -- -- -- --
WSSpd -- -- -- -- -- -- -- -- -- -- -- -- -- --
R03/21
XWnd -1 -7 -4 -2 -2 -2 -0 -0 -0 -0 -0 -0 -0 -0
XGst -- -10 -- -- -- -- -- -- -- -- -- -- -- --
R15/33
XWnd -12 -5 -5 -7 -7 -7 -3 -3 -3 -3 -3 -3 -3 -3
XGst -- -7 -- -- -- -- -- -- -- -- -- -- -- --
Raw TAF
KCHS 212006Z 2120/2218 17012G18KT P6SM SCT035
  FM212230 18010KT P6SM SCT050 BKN100
  FM220000 19010KT P6SM VCSH FEW050 BKN100
  FM220300 20004KT P6SM BKN200
  FM221400 24007KT P6SM BKN150


Raw METAR
KCHS 212056Z 20015KT 10SM FEW034 BKN250 29/20 A3016 RMK AO2 SLP212 T02940200 56006
KCHS 211956Z 19016KT 10SM FEW033 BKN250 29/21 A3016 RMK AO2 SLP213 T02940206
KCHS 211856Z 19018G21KT 10SM FEW025 FEW045 BKN250 29/20 A3016 RMK AO2 SLP214 T02890200

METAR Board
Radar Display
Forecast Discussion
For situational awareness. Not to be used for flight planning purposes.